KGEY

South Big Horn County Airport

Greybull, Wyoming, USA
METAR KGEY 210453Z AUTO 30013G21KT 10SM OVC037 12/09 A3023 RMK AO2 SLP216 T01170094 TSNO $
Observed Flight Rules
Aug-21 @ 04:53 UTC (9 hours ago) Visual Flight Rules
Wind Visibility Clouds
300° at 13 knots
 Gusting to 21 knots
10 miles
  • Overcast at 3,700' AGL
Temperatures Readings
Current 12°C / 54°F
Dewpoint 9°C / 48°F
Humidity 82%
Altimeter 30.23" Hg
Pressure 1021.6 hPa
Elevation 1191
METAR KGEY 210453Z AUTO 30013G21KT 10SM OVC037 12/09 A3023 RMK AO2 SLP216 T01170094 TSNO $
Observed Flight Rules
Aug-21 @ 04:53 UTC
(9 hours ago)
VFR
Wind Visibility
300° at 13 knots
 Gusting to 21 knots
10 miles
Clouds
  • Overcast at 3,700' AGL
Temperature Dewpoint
12°C / 54°F 9°C / 48°F
Humidity Altimeter Pressure
82% 30.23" Hg 1021.6 hPa